Time;durP1;ratioP1;P1;durP2;ratioP2;P2;SDS_P1;SDS_P2;PMS_P1;PMS_P2;Temp;Humidity;BMP_temperature;BMP_pressure;BME280_temperature;BME280_humidity;BME280_pressure;Samples;Min_cycle;Max_cycle;Signal;HPM_P1;HPM_P2
2022/05/20 00:00:34;;;;;;;22.83;20.55;;;;;;;13.02;84.06;102130.13;4989345;28;20041;-65
2022/05/20 00:03:00;;;;;;;23.55;21.25;;;;;;;13.06;84.33;102135.91;4988388;28;20034;-65
2022/05/20 00:05:27;;;;;;;24.17;22.00;;;;;;;13.11;84.27;102128.63;4988095;28;20022;-66
2022/05/20 00:07:53;;;;;;;25.27;22.73;;;;;;;13.07;84.37;102127.16;4989192;28;20030;-65
2022/05/20 00:10:19;;;;;;;26.02;23.23;;;;;;;13.10;84.43;102126.94;4993855;28;20542;-65
2022/05/20 00:12:45;;;;;;;27.17;24.35;;;;;;;12.99;84.71;102137.31;5008768;28;20481;-65
2022/05/20 00:15:17;;;;;;;25.42;22.83;;;;;;;13.09;84.77;102130.50;4998046;28;20046;-65
2022/05/20 00:17:43;;;;;;;26.13;23.40;;;;;;;12.98;84.88;102127.84;4988716;28;20034;-66
2022/05/20 00:20:11;;;;;;;25.77;23.15;;;;;;;13.00;84.69;102136.34;4988799;28;20034;-65
2022/05/20 00:22:36;;;;;;;26.25;23.63;;;;;;;12.96;84.93;102135.75;5003841;28;20038;-65
2022/05/20 00:27:46;;;;;;;25.55;23.05;;;;;;;12.87;85.25;102114.75;4982006;28;20439;-65
2022/05/20 00:30:12;;;;;;;26.45;23.67;;;;;;;12.95;85.06;102133.25;4969203;28;20030;-66
2022/05/20 00:32:38;;;;;;;25.20;22.60;;;;;;;12.94;85.78;102142.00;4969646;28;20057;-67
2022/05/20 00:35:04;;;;;;;25.85;23.35;;;;;;;12.93;85.08;102140.34;4975020;28;20558;-65
2022/05/20 00:37:30;;;;;;;26.30;23.67;;;;;;;12.93;85.29;102135.13;5003278;28;20034;-66
2022/05/20 00:39:55;;;;;;;24.95;22.52;;;;;;;12.93;85.23;102129.94;4990038;28;20034;-65
2022/05/20 00:42:20;;;;;;;25.20;22.58;;;;;;;12.88;85.26;102134.63;4986817;28;20356;-66
2022/05/20 00:44:46;;;;;;;26.73;24.00;;;;;;;12.91;84.70;102134.41;4988329;28;20069;-66
2022/05/20 00:47:13;;;;;;;26.38;23.67;;;;;;;12.81;85.18;102125.59;4988136;28;20025;-66
2022/05/20 00:49:44;;;;;;;25.70;23.30;;;;;;;12.76;85.81;102118.91;4988802;28;20026;-65
2022/05/20 00:52:12;;;;;;;26.55;23.95;;;;;;;12.75;86.06;102127.69;4987711;28;20030;-66
2022/05/20 00:54:47;;;;;;;27.70;25.02;;;;;;;12.79;85.97;102127.44;5001268;28;20030;-65
2022/05/20 00:57:17;;;;;;;27.60;24.85;;;;;;;12.75;86.13;102132.06;4989915;28;20022;-66
2022/05/20 00:59:51;;;;;;;26.48;23.85;;;;;;;12.62;86.65;102121.66;5003423;28;20109;-65
2022/05/20 01:02:19;;;;;;;26.38;23.98;;;;;;;12.69;86.24;102133.31;4987426;28;20038;-65
2022/05/20 01:04:45;;;;;;;26.80;24.23;;;;;;;12.60;85.55;102126.13;4995701;28;20057;-68
2022/05/20 01:07:12;;;;;;;29.63;26.83;;;;;;;12.63;86.56;102123.34;5005497;28;20462;-66
2022/05/20 01:09:39;;;;;;;29.35;26.65;;;;;;;12.62;86.45;102124.28;5007269;28;20477;-66
2022/05/20 01:12:05;;;;;;;29.00;26.20;;;;;;;12.48;86.14;102116.56;4990598;28;20034;-66
2022/05/20 01:14:31;;;;;;;29.42;26.73;;;;;;;12.59;85.78;102115.84;4986805;28;20046;-65
2022/05/20 01:16:57;;;;;;;31.48;28.38;;;;;;;12.62;86.37;102106.06;4987723;28;20562;-65
2022/05/20 01:19:35;;;;;;;31.67;28.67;;;;;;;12.52;87.19;102105.03;4988722;28;20109;-66
2022/05/20 01:22:01;;;;;;;28.70;25.98;;;;;;;12.61;86.18;102119.97;5002293;28;20033;-66
2022/05/20 01:24:27;;;;;;;21.73;19.75;;;;;;;12.63;86.16;102122.50;4991573;28;20025;-65
2022/05/20 01:26:52;;;;;;;15.10;13.55;;;;;;;12.57;85.31;102110.75;4995088;28;20068;-65
2022/05/20 01:29:18;;;;;;;12.95;11.75;;;;;;;12.53;84.50;102122.28;4990047;28;20080;-65
2022/05/20 01:31:43;;;;;;;14.38;13.07;;;;;;;12.47;84.52;102127.94;5007678;28;20072;-66
2022/05/20 01:34:09;;;;;;;15.55;14.15;;;;;;;12.41;85.19;102112.75;4996296;28;20121;-66
2022/05/20 01:36:34;;;;;;;15.75;14.35;;;;;;;12.30;85.05;102117.84;4987791;28;20502;-65
2022/05/20 01:39:00;;;;;;;17.05;15.55;;;;;;;12.37;84.70;102121.69;4989002;28;20034;-66
2022/05/20 01:41:36;;;;;;;18.23;16.70;;;;;;;12.35;85.40;102107.97;4988098;28;20033;-66
2022/05/20 01:44:36;;;;;;;17.00;15.50;;;;;;;12.35;85.63;102107.97;4987105;28;20038;-65
2022/05/20 01:47:09;;;;;;;17.40;15.95;;;;;;;12.25;85.00;102096.50;4978537;28;20472;-65
2022/05/20 01:49:54;;;;;;;17.25;15.85;;;;;;;12.25;85.81;102086.09;4986986;28;20033;-66
2022/05/20 01:52:32;;;;;;;17.33;15.82;;;;;;;12.17;85.76;102087.47;4997488;28;20022;-66
2022/05/20 01:55:02;;;;;;;;;;;;;;;12.43;84.15;102090.03;4987792;28;20027;-65
2022/05/20 01:57:39;;;;;;;17.15;15.75;;;;;;;12.14;85.23;102085.06;4987314;28;19913;-65
2022/05/20 02:00:15;;;;;;;17.45;15.98;;;;;;;12.20;85.34;102084.63;4994069;28;20030;-65
2022/05/20 02:03:05;;;;;;;18.83;17.30;;;;;;;12.17;85.57;102082.25;4987664;28;20053;-66
2022/05/20 02:05:34;;;;;;;21.55;19.67;;;;;;;12.17;85.22;102074.47;4986066;28;20124;-66
2022/05/20 02:08:05;;;;;;;20.75;19.05;;;;;;;12.14;85.79;102079.84;4991535;28;20025;-65
2022/05/20 02:10:37;;;;;;;18.27;16.67;;;;;;;12.05;85.79;102072.69;5003069;28;20052;-65
2022/05/20 02:13:05;;;;;;;18.90;17.40;;;;;;;12.09;85.69;102087.13;4992985;28;20271;-65
2022/05/20 02:15:51;;;;;;;20.45;18.75;;;;;;;12.06;85.50;102087.38;4990420;28;20078;-66
2022/05/20 02:18:24;;;;;;;23.13;21.13;;;;;;;12.08;85.79;102084.66;4992324;28;20038;-65
2022/05/20 02:20:54;;;;;;;23.90;21.75;;;;;;;12.10;85.92;102094.03;4991032;28;20181;-66
2022/05/20 02:23:31;;;;;;;24.00;22.00;;;;;;;12.14;86.01;102094.63;4989390;28;20121;-65
2022/05/20 02:26:03;;;;;;;25.90;23.63;;;;;;;12.11;86.41;102100.06;4985416;28;20081;-66
2022/05/20 02:28:34;;;;;;;25.40;23.23;;;;;;;12.11;85.95;102095.69;4990347;28;20073;-65
2022/05/20 02:31:02;;;;;;;26.60;24.10;;;;;;;12.07;85.74;102073.41;4990346;28;20018;-66
2022/05/20 02:33:28;;;;;;;25.73;23.63;;;;;;;12.11;85.53;102080.09;4991155;28;20061;-66
2022/05/20 02:36:03;;;;;;;26.92;24.58;;;;;;;12.05;86.18;102085.69;4990921;28;20054;-65
2022/05/20 02:38:28;;;;;;;28.75;26.25;;;;;;;12.00;85.45;102077.38;4989823;28;20030;-65
2022/05/20 02:40:54;;;;;;;27.33;24.98;;;;;;;12.03;85.29;102077.16;4990762;28;20034;-66
2022/05/20 02:43:21;;;;;;;27.00;24.77;;;;;;;11.92;86.07;102066.66;4992874;28;20493;-65
2022/05/20 02:45:49;;;;;;;26.10;23.90;;;;;;;11.94;85.59;102072.59;4991016;28;20037;-66
2022/05/20 02:48:17;;;;;;;24.57;22.57;;;;;;;11.90;85.18;102071.94;4990643;28;20032;-66
2022/05/20 02:50:43;;;;;;;23.95;21.92;;;;;;;11.90;85.66;102071.13;4992961;28;20030;-65
2022/05/20 02:53:09;;;;;;;23.73;21.63;;;;;;;11.86;85.17;102067.06;5009766;28;20033;-65
2022/05/20 02:55:35;;;;;;;22.35;20.55;;;;;;;11.86;85.63;102070.50;4997147;28;20069;-65
2022/05/20 02:58:00;;;;;;;23.80;21.80;;;;;;;11.86;85.76;102064.47;4990159;28;20030;-66
2022/05/20 03:05:55;;;;;;;24.60;22.50;;;;;;;11.82;85.39;102063.84;4990652;28;20101;-66
2022/05/20 03:08:21;;;;;;;27.35;25.02;;;;;;;11.77;86.13;102065.88;4989456;28;20471;-66
2022/05/20 03:10:46;;;;;;;29.30;26.77;;;;;;;11.79;86.07;102068.38;4994452;28;20057;-65
2022/05/20 03:13:12;;;;;;;27.10;24.83;;;;;;;11.81;86.18;102066.50;5009736;28;20064;-66
2022/05/20 03:15:39;;;;;;;25.52;23.42;;;;;;;11.82;86.07;102069.06;5010070;28;20053;-66
2022/05/20 03:18:05;;;;;;;24.90;22.65;;;;;;;11.75;85.44;102061.72;4992163;28;20038;-66
2022/05/20 03:20:32;;;;;;;25.30;23.13;;;;;;;11.68;85.34;102051.72;4989690;28;20077;-65
2022/05/20 03:22:57;;;;;;;26.55;24.27;;;;;;;11.77;85.37;102062.47;4990476;28;20098;-65
2022/05/20 03:25:22;;;;;;;25.63;23.52;;;;;;;11.72;85.05;102059.34;4989477;28;20113;-65
2022/05/20 03:27:48;;;;;;;27.67;25.17;;;;;;;11.74;85.35;102060.06;4989714;28;20076;-67
2022/05/20 03:30:15;;;;;;;26.35;24.13;;;;;;;11.68;85.47;102061.28;5004642;28;20053;-66
2022/05/20 03:32:40;;;;;;;28.35;25.95;;;;;;;11.66;86.42;102058.81;5004769;28;20329;-65
2022/05/20 03:35:07;;;;;;;29.52;27.13;;;;;;;11.67;85.69;102060.47;4989691;28;20025;-65
2022/05/20 03:37:33;;;;;;;28.27;25.88;;;;;;;11.65;86.12;102046.75;4989051;28;20766;-65
2022/05/20 03:39:58;;;;;;;29.20;26.75;;;;;;;11.68;86.59;102056.94;4989297;28;20455;-65
2022/05/20 03:42:25;;;;;;;30.35;27.65;;;;;;;11.66;85.92;102063.19;4988332;28;20042;-65
2022/05/20 03:44:51;;;;;;;31.45;28.85;;;;;;;11.64;86.02;102060.69;4988170;28;20042;-65
2022/05/20 03:47:17;;;;;;;26.80;24.50;;;;;;;11.66;85.47;102068.38;4988370;28;20073;-66
2022/05/20 03:49:42;;;;;;;24.55;22.38;;;;;;;11.60;85.91;102074.81;4987946;28;20034;-65
2022/05/20 03:52:08;;;;;;;22.30;20.50;;;;;;;11.56;85.78;102073.34;4989805;28;20494;-66
2022/05/20 03:54:34;;;;;;;20.88;19.10;;;;;;;11.54;85.53;102064.00;4987038;28;20105;-66
2022/05/20 03:57:00;;;;;;;19.92;18.33;;;;;;;11.48;85.22;102070.41;4988133;28;20426;-65
2022/05/20 03:59:27;;;;;;;20.70;18.90;;;;;;;11.42;85.58;102063.03;4987617;28;20037;-65
2022/05/20 04:01:58;;;;;;;19.25;17.65;;;;;;;11.30;85.91;102063.84;4987461;28;20041;-65
2022/05/20 04:04:32;;;;;;;18.63;17.02;;;;;;;11.39;85.36;102065.81;4988348;28;20379;-65
2022/05/20 04:07:12;;;;;;;19.30;17.70;;;;;;;11.40;85.85;102068.28;4988683;28;20032;-65
2022/05/20 04:09:38;;;;;;;19.75;18.08;;;;;;;11.38;85.58;102053.75;4987143;28;20030;-64
2022/05/20 04:12:06;;;;;;;20.33;18.65;;;;;;;11.34;85.76;102067.88;4988510;28;20555;-66
2022/05/20 04:14:33;;;;;;;19.95;18.17;;;;;;;11.33;85.40;102061.00;4986803;28;20105;-65
2022/05/20 04:16:58;;;;;;;18.60;17.10;;;;;;;11.20;86.03;102049.75;4991009;28;20072;-64
2022/05/20 04:19:25;;;;;;;19.60;18.00;;;;;;;11.20;85.46;102066.19;4983446;28;20039;-65
2022/05/20 04:21:53;;;;;;;20.20;18.40;;;;;;;11.00;85.22;102057.06;4984072;28;20041;-64
2022/05/20 04:24:20;;;;;;;22.00;20.30;;;;;;;10.92;86.29;102051.53;4987370;28;20141;-65
2022/05/20 04:26:46;;;;;;;23.38;21.38;;;;;;;10.90;86.36;102058.59;4988297;28;20281;-65
2022/05/20 04:29:12;;;;;;;22.70;21.00;;;;;;;10.82;86.43;102053.03;4986290;28;20030;-65
2022/05/20 04:31:44;;;;;;;26.70;24.40;;;;;;;10.73;87.13;102045.84;4988053;28;20069;-64
2022/05/20 04:34:09;;;;;;;27.60;25.17;;;;;;;10.74;87.62;102047.50;4988643;28;20023;-64
2022/05/20 04:36:34;;;;;;;27.73;25.42;;;;;;;10.74;87.36;102037.13;4987937;28;20033;-65
2022/05/20 04:39:00;;;;;;;27.98;25.73;;;;;;;10.70;88.32;102061.59;4988117;28;20050;-64
2022/05/20 04:46:59;;;;;;;31.88;29.15;;;;;;;10.77;88.61;102050.72;4988201;28;20080;-65
2022/05/20 04:49:32;;;;;;;31.58;29.08;;;;;;;10.78;89.51;102048.94;4986956;28;20518;-65
2022/05/20 04:52:00;;;;;;;34.35;31.55;;;;;;;10.76;89.23;102040.44;4986580;28;20170;-65
2022/05/20 04:57:34;;;;;;;39.10;35.83;;;;;;;10.91;89.98;102065.44;4985007;28;20085;-65
2022/05/20 05:00:03;;;;;;;39.70;36.53;;;;;;;10.98;90.51;102061.53;4986045;28;20026;-65
2022/05/20 05:02:28;;;;;;;42.25;38.83;;;;;;;11.07;89.96;102071.31;4986878;28;20037;-65
2022/05/20 05:04:54;;;;;;;42.10;38.60;;;;;;;11.16;90.13;102075.91;4986740;28;20038;-66
2022/05/20 05:07:20;;;;;;;47.38;43.58;;;;;;;11.22;90.37;102068.66;4986035;28;20068;-65
2022/05/20 05:09:46;;;;;;;46.45;42.65;;;;;;;11.25;90.78;102063.28;4986379;28;20157;-66
2022/05/20 05:12:12;;;;;;;47.47;43.75;;;;;;;11.30;90.83;102082.00;4986768;28;20624;-65
2022/05/20 05:14:46;;;;;;;47.22;43.33;;;;;;;11.37;91.71;102067.69;4984646;28;20061;-65
2022/05/20 05:17:14;;;;;;;47.47;43.60;;;;;;;11.19;91.33;102053.31;4989198;28;20029;-65
2022/05/20 05:19:41;;;;;;;45.58;41.42;;;;;;;11.26;91.18;102054.56;4986815;28;20034;-66
2022/05/20 05:22:08;;;;;;;43.30;39.85;;;;;;;11.34;91.96;102047.09;4986187;28;20032;-65
2022/05/20 05:24:35;;;;;;;45.80;42.17;;;;;;;11.29;92.83;102055.19;4987899;28;20475;-65
2022/05/20 05:27:01;;;;;;;46.28;42.33;;;;;;;11.33;92.56;102055.81;4987227;28;20411;-65
2022/05/20 05:29:26;;;;;;;45.10;41.60;;;;;;;11.47;92.57;102058.38;4986925;28;20455;-65
2022/05/20 05:31:52;;;;;;;48.08;44.28;;;;;;;11.49;92.74;102061.69;4985534;28;20026;-65
2022/05/20 05:34:17;;;;;;;49.17;45.13;;;;;;;11.43;93.16;102052.53;5002668;28;20026;-65
2022/05/20 05:36:43;;;;;;;48.38;44.53;;;;;;;11.57;94.12;102059.41;4985665;28;20022;-65
2022/05/20 05:39:08;;;;;;;49.53;45.65;;;;;;;11.69;93.39;102053.38;4986416;28;20033;-65
2022/05/20 05:41:34;;;;;;;47.20;43.38;;;;;;;11.75;93.39;102057.34;4985779;28;20117;-65
2022/05/20 05:44:02;;;;;;;47.92;44.03;;;;;;;11.79;93.33;102064.00;4986801;28;20022;-65
2022/05/20 05:46:27;;;;;;;48.17;44.35;;;;;;;11.89;93.47;102054.69;4986830;28;20034;-65
2022/05/20 05:48:53;;;;;;;47.65;43.85;;;;;;;12.04;93.52;102052.81;4987865;28;20101;-65
2022/05/20 05:51:18;;;;;;;49.15;45.20;;;;;;;12.10;93.78;102039.41;4993359;28;20064;-65
2022/05/20 05:53:43;;;;;;;49.20;45.22;;;;;;;12.20;93.73;102037.81;4989441;28;20026;-65
2022/05/20 05:56:09;;;;;;;45.53;41.83;;;;;;;12.22;93.14;102038.56;4986191;28;20046;-65
2022/05/20 05:58:35;;;;;;;45.45;41.78;;;;;;;12.26;93.82;102036.56;4986300;28;20030;-65
2022/05/20 06:01:01;;;;;;;46.95;43.08;;;;;;;12.35;93.87;102045.50;4986297;28;20034;-65
2022/05/20 06:03:26;;;;;;;46.17;42.38;;;;;;;12.49;93.73;102047.97;4986633;28;20493;-65
2022/05/20 06:05:52;;;;;;;46.50;42.50;;;;;;;12.59;93.67;102033.38;4987028;28;20449;-65
2022/05/20 06:08:17;;;;;;;44.90;41.05;;;;;;;12.71;93.25;102032.50;4986162;28;20542;-65
2022/05/20 06:10:44;;;;;;;43.08;39.38;;;;;;;12.80;92.49;102030.19;4991100;28;20034;-65
2022/05/20 06:13:10;;;;;;;41.30;37.80;;;;;;;12.82;92.76;102013.50;4995806;28;20117;-66
2022/05/20 06:15:37;;;;;;;36.92;33.72;;;;;;;12.90;91.63;102025.97;4986916;28;20078;-66
2022/05/20 06:18:03;;;;;;;37.20;34.08;;;;;;;12.92;91.05;102018.91;4988724;28;20038;-65
2022/05/20 06:20:28;;;;;;;34.92;31.92;;;;;;;13.01;91.27;102002.59;4984929;28;20030;-66
2022/05/20 06:22:54;;;;;;;36.05;32.75;;;;;;;13.16;90.59;102017.09;4985801;28;20022;-66
2022/05/20 06:25:20;;;;;;;33.28;30.38;;;;;;;13.32;90.00;102031.66;4985212;28;20118;-65
2022/05/20 06:27:46;;;;;;;31.40;28.50;;;;;;;13.40;88.27;102039.72;4986429;28;20105;-66
2022/05/20 06:30:15;;;;;;;31.27;28.25;;;;;;;13.47;87.78;102030.50;4986046;28;20042;-65
2022/05/20 06:32:40;;;;;;;30.70;27.88;;;;;;;13.55;87.56;102028.97;4985881;28;20141;-65
2022/05/20 06:40:49;;;;;;;21.88;19.77;;;;;;;13.79;84.30;102031.50;4985436;28;20053;-66
2022/05/20 06:43:18;;;;;;;18.83;16.85;;;;;;;13.84;81.79;102027.72;4985289;28;20054;-66
2022/05/20 06:45:46;;;;;;;18.85;16.05;;;;;;;13.86;81.56;102028.44;4986973;28;20486;-66
2022/05/20 06:48:12;;;;;;;18.83;16.95;;;;;;;13.85;80.27;102018.97;4986432;28;20053;-66
2022/05/20 06:50:39;;;;;;;17.48;15.48;;;;;;;14.00;80.66;102025.63;4988196;28;20462;-65
2022/05/20 06:53:05;;;;;;;17.08;15.13;;;;;;;14.08;79.93;102018.00;4994840;28;20030;-66
2022/05/20 06:55:31;;;;;;;15.60;14.00;;;;;;;14.12;79.53;102016.00;4990090;28;20048;-65
2022/05/20 06:57:56;;;;;;;17.25;14.25;;;;;;;14.19;79.05;102007.56;4990331;28;20015;-68
2022/05/20 07:00:22;;;;;;;16.92;15.25;;;;;;;14.29;79.27;102012.91;4989707;28;20030;-65
2022/05/20 07:02:47;;;;;;;17.13;15.30;;;;;;;14.35;79.27;102002.81;4990430;28;20148;-66
2022/05/20 07:05:13;;;;;;;17.75;15.82;;;;;;;14.46;79.59;102009.81;4990352;28;20061;-66
2022/05/20 07:07:39;;;;;;;18.77;14.68;;;;;;;14.52;77.70;102003.31;4989309;28;20102;-66
2022/05/20 07:10:06;;;;;;;15.98;14.43;;;;;;;14.52;77.05;101979.81;4989360;28;20046;-66
2022/05/20 07:12:33;;;;;;;16.90;15.15;;;;;;;14.59;77.34;101983.59;5008421;28;20021;-66
2022/05/20 07:15:00;;;;;;;18.80;15.07;;;;;;;14.63;77.44;101969.34;4996521;28;20380;-66
2022/05/20 07:17:25;;;;;;;18.48;14.65;;;;;;;14.70;77.84;101975.72;4991551;28;20026;-65
2022/05/20 07:19:51;;;;;;;15.55;13.93;;;;;;;14.77;76.25;101971.66;4990000;28;20076;-66
2022/05/20 07:22:16;;;;;;;16.98;13.45;;;;;;;14.84;75.38;101962.34;4987653;28;20113;-66
2022/05/20 07:24:43;;;;;;;14.75;12.73;;;;;;;14.91;75.74;101956.63;4990355;28;20072;-66
2022/05/20 07:27:08;;;;;;;14.02;12.40;;;;;;;15.03;76.09;101955.63;4989413;28;20475;-65
2022/05/20 07:29:34;;;;;;;15.40;12.27;;;;;;;15.11;75.35;101953.22;4989847;28;20031;-66
2022/05/20 07:32:00;;;;;;;12.55;11.23;;;;;;;15.15;73.68;101946.78;4989154;28;20034;-66
2022/05/20 07:34:26;;;;;;;14.52;11.98;;;;;;;15.20;74.02;101955.06;4989449;28;20034;-66
2022/05/20 07:36:51;;;;;;;15.23;13.15;;;;;;;15.25;73.92;101945.03;4989931;28;20073;-66
2022/05/20 07:39:16;;;;;;;15.50;13.15;;;;;;;15.41;75.61;101945.41;4989831;28;20462;-65
2022/05/20 07:41:41;;;;;;;14.40;12.05;;;;;;;15.52;75.73;101930.63;4988790;28;20467;-69
2022/05/20 07:44:07;;;;;;;14.98;11.43;;;;;;;15.64;74.24;101926.97;4988356;28;20026;-66
2022/05/20 07:46:32;;;;;;;12.82;10.07;;;;;;;15.74;73.29;101925.25;4988752;28;20499;-66
2022/05/20 07:48:57;;;;;;;12.60;10.07;;;;;;;15.79;72.59;101923.06;4990108;28;20088;-65
2022/05/20 07:51:24;;;;;;;12.25;9.90;;;;;;;15.85;71.81;101922.53;4987568;28;20370;-66
2022/05/20 07:53:54;;;;;;;10.93;8.50;;;;;;;15.97;71.98;101925.03;4988829;28;20522;-66
2022/05/20 07:56:35;;;;;;;13.65;8.70;;;;;;;16.10;71.90;101921.22;4987778;28;20030;-65
2022/05/20 07:59:08;;;;;;;13.05;8.05;;;;;;;16.19;70.40;101915.19;4985061;28;20084;-66
2022/05/20 08:01:37;;;;;;;11.57;9.07;;;;;;;16.35;71.35;101917.28;4989020;28;20561;-66
2022/05/20 08:07:00;;;;;;;13.00;10.23;;;;;;;16.44;71.93;101919.06;4988777;28;20086;-66
2022/05/20 08:09:26;;;;;;;14.70;10.45;;;;;;;16.47;69.15;101917.97;4988736;28;20030;-65
2022/05/20 08:11:52;;;;;;;12.73;9.70;;;;;;;16.52;68.23;101909.72;4988858;28;20073;-65
2022/05/20 08:14:17;;;;;;;12.57;9.57;;;;;;;16.62;69.88;101911.34;4988876;28;20057;-68
2022/05/20 08:16:42;;;;;;;11.93;10.25;;;;;;;16.59;69.72;101889.84;5003676;28;20049;-66
2022/05/20 08:19:08;;;;;;;13.48;10.10;;;;;;;16.76;68.23;101915.38;4989439;28;20494;-66
2022/05/20 08:21:34;;;;;;;12.10;10.30;;;;;;;16.77;68.06;101903.94;4988507;28;20499;-68
2022/05/20 08:24:00;;;;;;;15.07;10.13;;;;;;;16.86;68.10;101897.88;4988782;28;20097;-66
2022/05/20 08:26:25;;;;;;;14.60;10.68;;;;;;;16.91;67.95;101895.63;4988049;28;20410;-66
2022/05/20 08:28:51;;;;;;;13.75;10.90;;;;;;;16.93;67.49;101878.00;4988243;28;20506;-66
2022/05/20 08:31:16;;;;;;;11.93;10.68;;;;;;;17.02;68.47;101883.34;4988174;28;20474;-66
2022/05/20 08:33:43;;;;;;;14.43;10.68;;;;;;;17.04;67.27;101870.94;4993136;23;20051;-66
2022/05/20 08:36:08;;;;;;;12.73;10.65;;;;;;;17.18;67.54;101886.19;4969178;28;20022;-66
2022/05/20 08:38:33;;;;;;;11.43;10.18;;;;;;;17.15;66.25;101870.78;4968770;28;20049;-66
2022/05/20 08:41:00;;;;;;;12.77;10.20;;;;;;;17.11;66.15;101872.03;4974322;28;20050;-66
2022/05/20 08:43:29;;;;;;;15.18;11.30;;;;;;;17.29;67.01;101883.41;4970858;28;20597;-66
2022/05/20 08:45:55;;;;;;;11.23;9.90;;;;;;;17.30;65.36;101879.81;4986298;28;20031;-66
2022/05/20 08:48:20;;;;;;;12.30;8.73;;;;;;;17.35;65.37;101877.59;4987372;28;20046;-66
2022/05/20 08:50:52;;;;;;;11.82;9.77;;;;;;;17.44;65.61;101871.50;4985400;28;20030;-66
2022/05/20 08:53:26;;;;;;;10.38;8.55;;;;;;;17.45;66.04;101862.66;4982837;28;20038;-66
2022/05/20 08:55:52;;;;;;;11.23;8.68;;;;;;;17.65;66.01;101859.94;4971125;28;20490;-66
2022/05/20 08:58:21;;;;;;;13.23;9.32;;;;;;;17.61;64.16;101855.97;4987739;28;20054;-68
2022/05/20 09:00:47;;;;;;;9.88;8.65;;;;;;;17.59;63.52;101831.66;4988037;28;20483;-66
2022/05/20 09:03:12;;;;;;;11.45;8.18;;;;;;;17.65;64.65;101812.69;4973584;28;20150;-66
2022/05/20 09:05:40;;;;;;;11.27;8.48;;;;;;;17.70;64.58;101802.59;4984678;28;20390;-66
2022/05/20 09:08:14;;;;;;;11.02;7.95;;;;;;;17.75;63.66;101800.38;4987848;28;20030;-66
2022/05/20 09:10:46;;;;;;;10.60;7.35;;;;;;;17.80;63.25;101792.91;4984256;28;20603;-66
2022/05/20 09:13:20;;;;;;;11.48;8.13;;;;;;;17.85;63.96;101795.91;4968698;28;20406;-65
2022/05/20 09:16:05;;;;;;;11.80;7.95;;;;;;;17.94;64.68;101789.75;4986816;28;20032;-66
2022/05/20 09:18:39;;;;;;;11.70;8.52;;;;;;;17.89;62.79;101788.53;4987663;28;20069;-66
2022/05/20 09:21:05;;;;;;;10.65;7.43;;;;;;;17.93;62.98;101788.09;4956356;28;20035;-66
2022/05/20 09:23:31;;;;;;;8.32;5.47;;;;;;;18.03;61.93;101783.59;4968207;28;20058;-66
2022/05/20 09:26:06;;;;;;;8.40;4.85;;;;;;;18.14;60.71;101789.59;4968361;28;20054;-67
2022/05/20 09:28:39;;;;;;;7.53;4.47;;;;;;;18.24;59.91;101791.19;4969505;28;20055;-68
2022/05/20 09:31:06;;;;;;;7.97;4.80;;;;;;;18.34;58.35;101790.25;4968367;28;20050;-66
2022/05/20 09:33:35;;;;;;;8.85;4.53;;;;;;;18.46;59.62;101784.59;4968322;28;20193;-66
2022/05/20 09:36:03;;;;;;;7.15;4.57;;;;;;;18.58;58.29;101778.13;4971192;28;20415;-66
2022/05/20 09:38:33;;;;;;;6.72;4.60;;;;;;;18.74;59.13;101782.69;4985622;28;20438;-66
2022/05/20 09:40:59;;;;;;;7.70;5.28;;;;;;;18.70;57.46;101788.41;4975953;28;20062;-68
2022/05/20 09:43:28;;;;;;;8.68;5.85;;;;;;;18.63;57.82;101775.03;4975887;28;20039;-68
2022/05/20 09:45:56;;;;;;;10.18;5.85;;;;;;;18.52;57.11;101776.13;4980022;28;20027;-66
2022/05/20 09:48:34;;;;;;;8.40;5.53;;;;;;;18.55;57.44;101770.53;4981479;28;20084;-66
2022/05/20 09:51:15;;;;;;;10.50;6.07;;;;;;;18.70;59.30;101759.50;4980167;28;20188;-66
2022/05/20 09:53:43;;;;;;;9.60;6.72;;;;;;;18.75;56.88;101760.69;4978898;28;20073;-65
2022/05/20 09:56:24;;;;;;;;;;;;;;;18.91;60.75;101752.03;4961203;28;20411;-66
2022/05/20 09:59:11;;;;;;;9.82;5.93;;;;;;;18.98;58.44;101737.31;4978051;28;19918;-66
2022/05/20 10:01:38;;;;;;;8.98;5.75;;;;;;;18.96;57.12;101723.47;4966319;28;20530;-66
2022/05/20 10:04:09;;;;;;;8.90;5.97;;;;;;;18.95;56.37;101713.97;4968163;28;20041;-67
2022/05/20 10:06:43;;;;;;;8.43;5.93;;;;;;;18.92;58.16;101703.75;4999168;28;20049;-70
2022/05/20 10:09:21;;;;;;;9.20;6.30;;;;;;;18.99;57.30;101699.53;4968264;28;20065;-66
2022/05/20 10:12:01;;;;;;;9.65;6.60;;;;;;;18.96;58.74;101699.00;4979976;28;20073;-65
2022/05/20 10:14:44;;;;;;;9.75;6.82;;;;;;;18.90;58.34;101682.06;4987099;28;20398;-66
2022/05/20 10:17:21;;;;;;;9.85;7.22;;;;;;;18.92;59.07;101674.81;4976637;28;20034;-66
2022/05/20 10:19:48;;;;;;;11.52;7.10;;;;;;;18.93;59.25;101671.25;4971903;28;20038;-68
2022/05/20 10:22:19;;;;;;;10.02;7.22;;;;;;;19.00;58.53;101656.47;4972541;28;20030;-65
2022/05/20 10:25:16;;;;;;;9.57;7.53;;;;;;;19.11;58.73;101642.19;4978421;28;20034;-66
2022/05/20 10:32:34;;;;;;;9.73;7.05;;;;;;;19.18;58.78;101631.84;4973057;28;20514;-65
2022/05/20 10:33:58;;;;;;;9.43;6.90;;;;;;;19.33;57.60;101619.72;4982967;28;20561;-66
2022/05/20 10:36:33;;;;;;;11.93;6.97;;;;;;;19.33;59.13;101619.72;4990084;28;20466;-66
2022/05/20 10:38:59;;;;;;;12.20;8.07;;;;;;;19.34;58.14;101610.84;4990967;28;20501;-66
2022/05/20 10:41:33;;;;;;;10.07;8.00;;;;;;;19.27;58.22;101607.22;4987605;28;20041;-65
2022/05/20 10:50:26;;;;;;;12.90;8.60;;;;;;;19.38;60.57;101562.16;4947392;29;20055;-67
2022/05/20 10:53:16;;;;;;;10.73;7.80;;;;;;;19.41;58.49;101548.69;4948095;29;20279;-66
2022/05/20 10:56:16;;;;;;;11.55;7.97;;;;;;;19.50;58.84;101531.91;4928731;29;20276;-66
2022/05/20 10:58:50;;;;;;;13.23;8.15;;;;;;;19.56;59.42;101530.44;4946804;28;20081;-65
2022/05/20 11:01:28;;;;;;;11.00;8.13;;;;;;;19.55;58.33;101529.59;4946375;28;20516;-65
2022/05/20 11:03:56;;;;;;;13.20;9.32;;;;;;;19.51;59.01;101517.78;4948263;29;20407;-66
2022/05/20 11:06:37;;;;;;;12.65;8.95;;;;;;;19.49;58.89;101503.13;4947795;28;20486;-65
2022/05/20 11:09:14;;;;;;;12.63;9.52;;;;;;;19.36;59.29;101472.06;4946499;28;20046;-66
2022/05/20 11:11:59;;;;;;;12.55;10.25;;;;;;;19.48;59.61;101460.19;4954199;28;20119;-69
2022/05/20 11:14:27;;;;;;;13.13;10.15;;;;;;;19.54;61.28;101445.56;4958279;28;20027;-67
2022/05/20 11:17:01;;;;;;;13.95;10.73;;;;;;;19.59;60.72;101441.47;4936226;29;20428;-65
2022/05/20 11:19:58;;;;;;;13.38;11.35;;;;;;;19.65;60.45;101431.25;4946064;28;20066;-65
2022/05/20 11:22:49;;;;;;;13.65;11.18;;;;;;;19.66;61.99;101410.03;4979858;28;20042;-67
2022/05/20 11:25:36;;;;;;;16.98;11.98;;;;;;;19.62;60.24;101404.28;4989587;28;20053;-68
2022/05/20 11:28:18;;;;;;;15.90;11.93;;;;;;;19.64;60.20;101412.00;4989373;28;20034;-65
2022/05/20 11:31:00;;;;;;;12.82;11.25;;;;;;;19.71;60.78;101412.16;4989577;28;20025;-65
2022/05/20 11:33:35;;;;;;;13.52;12.10;;;;;;;19.70;60.32;101415.78;4970078;28;20051;-65
2022/05/20 11:36:29;;;;;;;15.20;12.02;;;;;;;19.73;60.90;101412.81;4970243;28;20498;-65
2022/05/20 11:39:07;;;;;;;14.75;13.18;;;;;;;19.76;61.88;101394.03;4977695;28;20022;-66
2022/05/20 11:41:57;;;;;;;15.00;13.50;;;;;;;19.76;62.29;101383.50;4971442;28;20104;-67
2022/05/20 11:44:48;;;;;;;17.50;13.68;;;;;;;19.80;62.30;101384.81;4970349;28;20023;-65
2022/05/20 11:47:26;;;;;;;15.30;13.63;;;;;;;19.75;61.91;101371.34;4958502;28;20061;-66
2022/05/20 11:49:52;;;;;;;15.55;13.48;;;;;;;19.80;62.02;101372.47;4972651;28;20415;-66
2022/05/20 11:52:43;;;;;;;15.15;13.60;;;;;;;19.79;63.02;101367.38;4971026;28;20494;-65
2022/05/20 11:55:17;;;;;;;16.38;14.68;;;;;;;19.71;62.21;101364.78;4968263;28;20113;-66
2022/05/20 11:58:08;;;;;;;18.20;14.93;;;;;;;19.73;62.60;101357.53;4980000;28;20073;-65